createdAt,value
2023-03-10T00:01:30.033Z,42.80
2023-03-10T00:03:58.558Z,42.80
2023-03-10T00:06:27.786Z,42.90
2023-03-10T00:08:55.224Z,42.90
2023-03-10T00:11:22.466Z,43.00
2023-03-10T00:13:49.476Z,43.00
2023-03-10T00:16:22.338Z,43.10
2023-03-10T00:18:49.217Z,43.20
2023-03-10T00:21:17.917Z,43.20
2023-03-10T00:23:44.683Z,43.20
2023-03-10T00:26:16.704Z,43.20
2023-03-10T00:28:43.596Z,43.30
2023-03-10T00:31:15.840Z,43.30
2023-03-10T00:33:42.765Z,43.30
2023-03-10T00:36:18.390Z,43.40
2023-03-10T00:38:46.936Z,43.40
2023-03-10T00:41:19.511Z,43.40
2023-03-10T00:43:46.775Z,43.40
2023-03-10T00:46:13.772Z,43.50
2023-03-10T00:48:41.165Z,43.50
2023-03-10T00:51:08.611Z,43.50
2023-03-10T00:53:38.031Z,43.50
2023-03-10T00:56:18.224Z,43.50
2023-03-10T00:58:46.010Z,43.50
2023-03-10T01:01:15.389Z,43.50
2023-03-10T01:03:42.568Z,43.60
2023-03-10T01:06:09.377Z,43.60
2023-03-10T01:08:36.312Z,43.50
2023-03-10T01:11:03.145Z,43.50
2023-03-10T01:13:30.067Z,43.50
2023-03-10T01:15:56.805Z,43.60
2023-03-10T01:18:23.829Z,43.60
2023-03-10T01:20:50.704Z,43.60
2023-03-10T01:23:22.866Z,43.60
2023-03-10T01:25:50.404Z,43.60
2023-03-10T01:28:17.478Z,43.60
2023-03-10T01:30:44.494Z,43.70
2023-03-10T01:33:12.067Z,43.70
2023-03-10T01:35:39.882Z,43.60
2023-03-10T01:38:07.327Z,43.60
2023-03-10T01:40:34.813Z,43.70
2023-03-10T01:43:19.880Z,43.70
2023-03-10T01:45:46.617Z,43.70
2023-03-10T01:48:15.032Z,43.70
2023-03-10T01:50:45.488Z,43.70
2023-03-10T01:53:15.204Z,43.60
2023-03-10T01:55:47.564Z,43.70
2023-03-10T01:58:16.837Z,43.70
2023-03-10T02:00:44.102Z,43.70
2023-03-10T02:03:23.519Z,43.70
2023-03-10T02:05:58.546Z,43.70
2023-03-10T02:08:29.733Z,43.70
2023-03-10T02:10:57.850Z,43.70
2023-03-10T02:13:24.567Z,43.70
2023-03-10T02:15:51.567Z,43.70
2023-03-10T02:18:20.755Z,43.70
2023-03-10T02:21:17.504Z,43.70
2023-03-10T02:24:01.740Z,43.70
2023-03-10T02:26:46.057Z,43.70
2023-03-10T02:29:22.418Z,43.80
2023-03-10T02:31:50.241Z,43.70
2023-03-10T02:34:17.166Z,43.70
2023-03-10T02:36:43.861Z,43.70
2023-03-10T02:39:10.623Z,43.70
2023-03-10T02:41:39.619Z,43.70
2023-03-10T02:44:10.426Z,43.70
2023-03-10T02:46:37.608Z,43.70
2023-03-10T02:49:07.377Z,43.70
2023-03-10T02:51:38.032Z,43.70
2023-03-10T02:54:05.353Z,43.70
2023-03-10T02:56:35.010Z,43.70
2023-03-10T02:59:02.536Z,43.70
2023-03-10T03:01:30.531Z,43.70
2023-03-10T03:03:57.817Z,43.70
2023-03-10T03:06:25.280Z,43.70
2023-03-10T03:08:51.958Z,43.70
2023-03-10T03:11:18.805Z,43.70
2023-03-10T03:13:45.694Z,43.70
2023-03-10T03:16:13.535Z,43.70
2023-03-10T03:18:41.011Z,43.80
2023-03-10T03:21:13.121Z,43.70
2023-03-10T03:23:39.853Z,43.80
2023-03-10T03:26:14.896Z,43.70
2023-03-10T03:28:42.537Z,43.80
2023-03-10T03:31:14.909Z,43.70
2023-03-10T03:33:41.698Z,43.80
2023-03-10T03:36:08.797Z,43.70
2023-03-10T03:38:35.702Z,43.80
2023-03-10T03:41:02.376Z,43.70
2023-03-10T03:43:29.659Z,43.70
2023-03-10T03:45:56.596Z,43.70
2023-03-10T03:48:23.443Z,43.70
2023-03-10T03:50:50.469Z,43.70
2023-03-10T03:53:17.295Z,43.70
2023-03-10T03:55:44.056Z,43.70
2023-03-10T03:58:10.760Z,43.70
2023-03-10T04:00:40.004Z,43.70
2023-03-10T04:03:06.770Z,43.70
2023-03-10T04:05:33.841Z,43.70
2023-03-10T04:08:01.064Z,43.70
2023-03-10T04:10:28.994Z,43.70
2023-03-10T04:12:55.830Z,43.70
2023-03-10T04:15:23.144Z,43.70
2023-03-10T04:17:50.010Z,43.60
2023-03-10T04:20:18.231Z,43.60
2023-03-10T04:22:45.327Z,43.60
2023-03-10T04:25:12.379Z,43.60
2023-03-10T04:27:39.123Z,43.60
2023-03-10T04:30:07.195Z,43.60
2023-03-10T04:32:34.199Z,43.60
2023-03-10T04:35:01.548Z,43.60
2023-03-10T04:37:28.983Z,43.60
2023-03-10T04:39:57.117Z,43.50
2023-03-10T04:42:24.300Z,43.50
2023-03-10T04:44:52.374Z,43.50
2023-03-10T04:47:19.084Z,43.50
2023-03-10T04:49:45.800Z,43.60
2023-03-10T04:52:12.774Z,43.60
2023-03-10T04:54:39.434Z,43.50
2023-03-10T04:57:06.169Z,43.50
2023-03-10T04:59:32.986Z,43.50
2023-03-10T05:02:00.414Z,43.40
2023-03-10T05:04:27.284Z,43.40
2023-03-10T05:06:54.066Z,43.40
2023-03-10T05:09:20.920Z,43.50
2023-03-10T05:11:47.888Z,43.40
2023-03-10T05:14:15.585Z,43.40
2023-03-10T05:16:42.314Z,43.40
2023-03-10T05:19:09.195Z,43.40
2023-03-10T05:21:36.251Z,43.40
2023-03-10T05:24:03.487Z,43.40
2023-03-10T05:26:32.724Z,43.40
2023-03-10T05:29:01.055Z,43.40
2023-03-10T05:31:28.099Z,43.40
2023-03-10T05:33:54.916Z,43.40
2023-03-10T05:36:22.703Z,43.40
2023-03-10T05:38:49.845Z,43.40
2023-03-10T05:41:16.993Z,43.40
2023-03-10T05:43:43.776Z,43.40
2023-03-10T05:46:11.608Z,43.40
2023-03-10T05:48:38.907Z,43.40
2023-03-10T05:51:08.463Z,43.40
2023-03-10T05:53:36.264Z,43.40
2023-03-10T05:56:23.100Z,43.40
2023-03-10T05:58:51.161Z,43.40
2023-03-10T06:01:19.039Z,43.40
2023-03-10T06:03:46.123Z,43.40
2023-03-10T06:06:13.413Z,43.40
2023-03-10T06:08:40.258Z,43.40
2023-03-10T06:11:07.083Z,43.40
2023-03-10T06:13:33.921Z,43.40
2023-03-10T06:16:04.498Z,43.40
2023-03-10T06:18:31.400Z,43.40
2023-03-10T06:20:58.622Z,43.40
2023-03-10T06:23:26.756Z,43.40
2023-03-10T06:25:58.717Z,43.40
2023-03-10T06:28:26.893Z,43.40
2023-03-10T06:31:01.257Z,43.30
2023-03-10T06:33:29.062Z,43.30
2023-03-10T06:35:56.222Z,43.30
2023-03-10T06:38:23.383Z,43.30
2023-03-10T06:40:50.510Z,43.30
2023-03-10T06:43:17.536Z,43.20
2023-03-10T06:45:46.195Z,43.30
2023-03-10T06:48:13.672Z,43.30
2023-03-10T06:50:44.954Z,43.30
2023-03-10T06:53:12.083Z,45.30
2023-03-10T06:55:38.831Z,47.10
2023-03-10T06:58:06.046Z,47.70
2023-03-10T07:00:32.917Z,48.80
2023-03-10T07:02:59.955Z,48.70
2023-03-10T07:05:27.446Z,48.50
2023-03-10T07:07:55.547Z,48.40
2023-03-10T07:10:22.922Z,48.70
2023-03-10T07:12:55.062Z,48.30
2023-03-10T07:15:26.106Z,48.40
2023-03-10T07:17:56.033Z,48.30
2023-03-10T07:20:24.513Z,48.20
2023-03-10T07:22:51.580Z,48.00
2023-03-10T07:25:18.479Z,47.80
2023-03-10T07:27:45.197Z,47.70
2023-03-10T07:30:12.416Z,47.50
2023-03-10T07:32:39.283Z,47.30
2023-03-10T07:35:06.670Z,47.20
2023-03-10T07:37:33.323Z,47.10
2023-03-10T07:40:00.060Z,46.90
2023-03-10T07:42:26.742Z,46.70
2023-03-10T07:44:53.571Z,46.60
2023-03-10T07:47:20.279Z,46.50
2023-03-10T07:49:47.192Z,46.40
2023-03-10T07:52:15.293Z,46.20
2023-03-10T07:54:44.192Z,46.10
2023-03-10T07:57:15.143Z,46.10
2023-03-10T07:59:42.695Z,46.00
2023-03-10T08:02:13.134Z,45.80
2023-03-10T08:04:40.936Z,45.70
2023-03-10T08:07:08.539Z,45.70
2023-03-10T08:09:35.717Z,45.60
2023-03-10T08:12:03.490Z,45.50
2023-03-10T08:14:31.563Z,45.50
2023-03-10T08:16:59.000Z,45.40
2023-03-10T08:19:27.238Z,45.40
2023-03-10T08:22:02.093Z,45.30
2023-03-10T08:24:28.947Z,45.20
2023-03-10T08:26:56.044Z,45.20
2023-03-10T08:29:23.181Z,45.20
2023-03-10T08:31:50.211Z,45.10
2023-03-10T08:34:17.457Z,45.00
2023-03-10T08:36:44.461Z,45.00
2023-03-10T08:39:12.470Z,45.00
2023-03-10T08:41:46.604Z,44.90
2023-03-10T08:44:15.534Z,44.80
2023-03-10T08:46:46.594Z,45.30
2023-03-10T08:49:15.560Z,45.10
2023-03-10T08:51:43.579Z,45.10
2023-03-10T08:54:16.800Z,45.00
2023-03-10T08:56:43.555Z,44.90
2023-03-10T08:59:10.282Z,44.90
2023-03-10T09:01:37.706Z,44.90
2023-03-10T09:04:06.440Z,44.90
2023-03-10T09:06:33.355Z,44.90
2023-03-10T09:09:00.557Z,44.90
2023-03-10T09:11:31.523Z,44.80
2023-03-10T09:13:59.132Z,44.80
2023-03-10T09:16:26.464Z,44.80
2023-03-10T09:18:53.185Z,44.80
2023-03-10T09:21:20.510Z,44.70
2023-03-10T09:23:49.416Z,44.70
2023-03-10T09:26:16.538Z,44.70
2023-03-10T09:28:43.224Z,44.60
2023-03-10T09:31:14.824Z,44.60
2023-03-10T09:33:41.610Z,44.60
2023-03-10T09:36:08.656Z,44.60
2023-03-10T09:38:36.277Z,44.50
2023-03-10T09:41:36.949Z,44.60
2023-03-10T09:44:15.627Z,44.50
2023-03-10T09:47:06.819Z,44.50
2023-03-10T09:49:38.822Z,44.50
2023-03-10T09:52:23.643Z,44.50
2023-03-10T09:54:59.300Z,44.40
2023-03-10T09:57:27.108Z,44.40
2023-03-10T09:59:58.065Z,44.40
2023-03-10T10:02:32.883Z,44.40
2023-03-10T10:05:04.105Z,44.30
2023-03-10T10:07:46.521Z,44.30
2023-03-10T10:10:25.704Z,44.30
2023-03-10T10:12:54.662Z,44.30
2023-03-10T10:15:24.059Z,44.30
2023-03-10T10:18:16.162Z,44.30
2023-03-10T10:21:01.898Z,44.20
2023-03-10T10:23:44.929Z,44.20
2023-03-10T10:26:23.504Z,44.20
2023-03-10T10:28:54.980Z,44.20
2023-03-10T10:31:25.271Z,44.10
2023-03-10T10:33:53.587Z,44.10
2023-03-10T10:36:20.562Z,44.00
2023-03-10T10:38:50.874Z,44.00
2023-03-10T10:41:21.486Z,43.90
2023-03-10T10:43:49.045Z,43.90
2023-03-10T10:46:23.260Z,43.90
2023-03-10T10:48:51.502Z,43.90
2023-03-10T10:51:29.003Z,43.90
2023-03-10T10:53:57.291Z,43.70
2023-03-10T10:56:24.442Z,43.70
2023-03-10T10:59:20.804Z,43.70
2023-03-10T11:01:47.487Z,43.70
2023-03-10T11:04:16.406Z,43.60
2023-03-10T11:06:44.602Z,43.60
2023-03-10T11:09:18.308Z,43.50
2023-03-10T11:12:04.832Z,43.60
2023-03-10T11:14:49.395Z,43.50
2023-03-10T11:17:51.408Z,43.40
2023-03-10T11:20:24.619Z,43.40
2023-03-10T11:23:25.013Z,43.20
2023-03-10T11:26:19.913Z,43.20
2023-03-10T11:29:16.963Z,43.20
2023-03-10T11:31:49.737Z,43.20
2023-03-10T11:34:22.126Z,43.00
2023-03-10T11:36:56.660Z,43.10
2023-03-10T11:39:41.639Z,43.00
2023-03-10T11:42:11.158Z,42.70
2023-03-10T11:45:03.500Z,42.90
2023-03-10T11:47:42.105Z,42.70
2023-03-10T11:50:21.077Z,42.80
2023-03-10T11:52:49.163Z,42.70
2023-03-10T11:55:21.612Z,42.60
2023-03-10T11:57:52.730Z,42.40
2023-03-10T12:00:30.774Z,42.40
2023-03-10T12:03:00.196Z,42.50
2023-03-10T12:05:31.000Z,42.30
2023-03-10T12:08:02.482Z,42.20
2023-03-10T12:10:31.382Z,42.10
2023-03-10T12:12:58.501Z,42.20
2023-03-10T12:15:32.584Z,42.10
2023-03-10T12:17:59.617Z,41.90
2023-03-10T12:20:31.676Z,41.90
2023-03-10T12:23:00.614Z,42.00
2023-03-10T12:25:30.155Z,41.90
2023-03-10T12:28:15.823Z,41.90
2023-03-10T12:30:48.171Z,41.80
2023-03-10T12:33:42.484Z,41.70
2023-03-10T12:36:31.907Z,41.60
2023-03-10T12:39:20.210Z,41.70
2023-03-10T12:41:53.034Z,41.70
2023-03-10T12:44:22.448Z,41.70
2023-03-10T12:46:53.446Z,41.70
2023-03-10T12:49:40.828Z,41.60
2023-03-10T12:52:10.343Z,41.80
2023-03-10T12:54:50.787Z,41.80
2023-03-10T12:57:38.813Z,41.70
2023-03-10T13:00:25.313Z,41.80
2023-03-10T13:03:05.055Z,41.60
2023-03-10T13:05:39.917Z,41.70
2023-03-10T13:08:29.291Z,41.70
2023-03-10T13:10:58.290Z,41.50
2023-03-10T13:13:30.982Z,41.50
2023-03-10T13:16:00.255Z,41.40
2023-03-10T13:18:27.324Z,41.50
2023-03-10T13:20:54.208Z,41.50
2023-03-10T13:23:36.895Z,41.50
2023-03-10T13:26:07.402Z,41.40
2023-03-10T13:28:35.331Z,41.50
2023-03-10T13:31:20.474Z,41.40
2023-03-10T13:33:53.498Z,41.20
2023-03-10T13:36:31.463Z,41.10
2023-03-10T13:39:01.118Z,41.20
2023-03-10T13:41:27.935Z,41.10
2023-03-10T13:43:55.875Z,41.20
2023-03-10T13:46:29.876Z,41.00
2023-03-10T13:49:03.578Z,41.30
2023-03-10T13:51:33.317Z,41.10
2023-03-10T13:54:30.451Z,41.10
2023-03-10T13:57:02.081Z,41.00
2023-03-10T13:59:30.083Z,41.00
2023-03-10T14:02:01.438Z,41.00
2023-03-10T14:04:47.690Z,40.90
2023-03-10T14:07:23.641Z,40.80
2023-03-10T14:10:22.785Z,40.80
2023-03-10T14:12:51.682Z,40.80
2023-03-10T14:15:23.282Z,40.90
2023-03-10T14:18:13.378Z,40.70
2023-03-10T14:20:44.777Z,40.90
2023-03-10T14:23:23.491Z,40.70
2023-03-10T14:25:52.901Z,40.90
2023-03-10T14:28:25.951Z,40.80
2023-03-10T14:30:53.096Z,40.60
2023-03-10T14:33:19.964Z,40.80
2023-03-10T14:35:46.726Z,40.70
2023-03-10T14:38:13.755Z,40.50
2023-03-10T14:40:49.477Z,40.50
2023-03-10T14:43:23.356Z,40.60
2023-03-10T14:45:52.312Z,40.50
2023-03-10T14:48:22.420Z,40.50
2023-03-10T14:50:49.669Z,40.60
2023-03-10T14:53:19.530Z,40.20
2023-03-10T14:55:48.942Z,40.20
2023-03-10T14:58:28.943Z,40.10
2023-03-10T15:00:55.876Z,40.10
2023-03-10T15:03:22.748Z,40.10
2023-03-10T15:05:50.648Z,40.00
2023-03-10T15:08:18.037Z,39.90
2023-03-10T15:10:48.373Z,40.00
2023-03-10T15:13:18.330Z,40.10
2023-03-10T15:15:46.966Z,39.70
2023-03-10T15:18:16.967Z,39.90
2023-03-10T15:20:44.266Z,39.70
2023-03-10T15:23:14.580Z,40.00
2023-03-10T15:25:43.692Z,40.00
2023-03-10T15:28:12.064Z,40.00
2023-03-10T15:30:38.726Z,40.10
2023-03-10T15:33:05.586Z,40.00
2023-03-10T15:35:32.834Z,40.00
2023-03-10T15:37:59.637Z,40.10
2023-03-10T15:40:29.657Z,40.20
2023-03-10T15:42:57.737Z,40.20
2023-03-10T15:45:26.658Z,40.20
2023-03-10T15:47:53.569Z,40.20
2023-03-10T15:50:21.662Z,40.20
2023-03-10T15:52:50.465Z,40.20
2023-03-10T15:55:17.386Z,40.20
2023-03-10T15:57:45.093Z,40.20
2023-03-10T16:00:12.698Z,40.10
2023-03-10T16:02:39.461Z,40.20
2023-03-10T16:05:06.919Z,40.30
2023-03-10T16:07:33.723Z,40.30
2023-03-10T16:10:00.556Z,40.20
2023-03-10T16:12:27.854Z,40.20
2023-03-10T16:14:57.922Z,40.30
2023-03-10T16:17:25.122Z,40.30
2023-03-10T16:19:51.864Z,40.20
2023-03-10T16:22:18.604Z,40.30
2023-03-10T16:24:45.380Z,40.30
2023-03-10T16:27:12.766Z,40.20
2023-03-10T16:29:40.878Z,40.20
2023-03-10T16:32:08.997Z,40.20
2023-03-10T16:34:35.911Z,40.30
2023-03-10T16:37:02.734Z,40.30
2023-03-10T16:39:33.137Z,40.30
2023-03-10T16:42:00.399Z,40.30
2023-03-10T16:44:27.090Z,40.30
2023-03-10T16:46:53.883Z,40.30
2023-03-10T16:49:20.853Z,40.30
2023-03-10T16:51:48.109Z,40.30
2023-03-10T16:54:17.594Z,40.20
2023-03-10T16:56:47.615Z,40.40
2023-03-10T16:59:19.875Z,40.40
2023-03-10T17:01:47.624Z,40.40
2023-03-10T17:04:14.689Z,40.40
2023-03-10T17:06:42.048Z,40.40
2023-03-10T17:09:10.788Z,40.40
2023-03-10T17:11:45.139Z,40.50
2023-03-10T17:14:14.226Z,40.50
2023-03-10T17:16:41.247Z,40.50
2023-03-10T17:19:12.507Z,40.50
2023-03-10T17:21:42.033Z,40.50
2023-03-10T17:24:09.142Z,40.50
2023-03-10T17:26:36.134Z,40.60
2023-03-10T17:29:03.494Z,40.60
2023-03-10T17:31:30.454Z,40.60
2023-03-10T17:33:59.950Z,40.70
2023-03-10T17:36:27.518Z,40.70
2023-03-10T17:38:59.618Z,40.70
2023-03-10T17:41:27.109Z,40.80
2023-03-10T17:43:54.778Z,40.80
2023-03-10T17:46:24.614Z,40.90
2023-03-10T17:48:52.104Z,40.90
2023-03-10T17:51:24.739Z,40.90
2023-03-10T17:53:52.255Z,40.90
2023-03-10T17:56:19.684Z,41.00
2023-03-10T17:58:46.359Z,41.00
2023-03-10T18:01:16.584Z,41.00
2023-03-10T18:03:43.520Z,41.00
2023-03-10T18:06:30.665Z,41.00
2023-03-10T18:08:59.028Z,41.10
2023-03-10T18:11:26.748Z,41.10
2023-03-10T18:13:53.856Z,41.20
2023-03-10T18:16:22.973Z,41.20
2023-03-10T18:18:49.790Z,41.20
2023-03-10T18:21:18.381Z,41.20
2023-03-10T18:23:46.291Z,41.20
2023-03-10T18:26:19.356Z,41.20
2023-03-10T18:28:46.980Z,41.20
2023-03-10T18:31:28.796Z,41.20
2023-03-10T18:33:55.660Z,41.20
2023-03-10T18:36:24.642Z,41.20
2023-03-10T18:38:52.251Z,41.20
2023-03-10T18:41:21.841Z,41.20
2023-03-10T18:43:48.740Z,41.20
2023-03-10T18:46:15.494Z,41.20
2023-03-10T18:48:42.363Z,41.10
2023-03-10T18:51:11.124Z,41.10
2023-03-10T18:53:39.244Z,41.10
2023-03-10T18:56:06.556Z,41.10
2023-03-10T18:58:33.336Z,41.10
2023-03-10T19:01:00.138Z,41.10
2023-03-10T19:03:30.817Z,41.10
2023-03-10T19:05:58.025Z,41.10
2023-03-10T19:08:27.038Z,41.00
2023-03-10T19:10:56.080Z,41.00
2023-03-10T19:13:23.835Z,41.00
2023-03-10T19:15:50.875Z,41.00
2023-03-10T19:18:17.727Z,41.00
2023-03-10T19:20:46.115Z,41.00
2023-03-10T19:23:14.428Z,41.00
2023-03-10T19:25:41.309Z,41.00
2023-03-10T19:28:08.328Z,41.00
2023-03-10T19:30:35.357Z,41.00
2023-03-10T19:33:02.128Z,41.00
2023-03-10T19:35:28.966Z,41.00
2023-03-10T19:37:55.695Z,41.00
2023-03-10T19:40:23.099Z,41.00
2023-03-10T19:42:49.832Z,41.00
2023-03-10T19:45:18.250Z,41.00
2023-03-10T19:47:45.722Z,41.00
2023-03-10T19:50:15.763Z,41.00
2023-03-10T19:52:44.554Z,41.00
2023-03-10T19:55:16.319Z,41.00
2023-03-10T19:57:43.123Z,41.00
2023-03-10T20:00:13.899Z,41.00
2023-03-10T20:02:44.595Z,41.00
2023-03-10T20:05:13.937Z,41.00
2023-03-10T20:07:42.594Z,41.00
2023-03-10T20:10:10.613Z,41.00
2023-03-10T20:12:37.306Z,41.00
2023-03-10T20:15:05.501Z,41.10
2023-03-10T20:17:32.436Z,41.10
2023-03-10T20:19:59.290Z,41.10
2023-03-10T20:22:26.158Z,41.10
2023-03-10T20:24:52.967Z,41.10
2023-03-10T20:27:19.722Z,41.20
2023-03-10T20:29:46.370Z,41.10
2023-03-10T20:32:13.172Z,41.20
2023-03-10T20:34:41.182Z,41.20
2023-03-10T20:37:08.439Z,41.20
2023-03-10T20:39:35.190Z,41.20
2023-03-10T20:42:01.955Z,41.20
2023-03-10T20:44:28.624Z,41.20
2023-03-10T20:46:55.407Z,41.20
2023-03-10T20:49:22.132Z,41.20
2023-03-10T20:51:48.878Z,41.20
2023-03-10T20:54:15.835Z,41.20
2023-03-10T20:56:42.492Z,41.20
2023-03-10T20:59:09.156Z,41.20
2023-03-10T21:01:39.676Z,41.10
2023-03-10T21:04:06.631Z,41.10
2023-03-10T21:06:33.466Z,41.20
2023-03-10T21:09:05.746Z,41.20
2023-03-10T21:11:34.352Z,41.20
2023-03-10T21:14:01.404Z,41.10
2023-03-10T21:16:28.144Z,41.20
2023-03-10T21:18:54.955Z,41.20
2023-03-10T21:21:21.726Z,41.10
2023-03-10T21:23:48.706Z,41.10
2023-03-10T21:26:19.039Z,41.10
2023-03-10T21:28:46.661Z,41.10
2023-03-10T21:31:14.209Z,41.10
2023-03-10T21:33:41.830Z,41.10
2023-03-10T21:36:15.838Z,41.10
2023-03-10T21:38:43.626Z,41.10
2023-03-10T21:41:14.009Z,41.00
2023-03-10T21:43:40.711Z,41.10
2023-03-10T21:46:07.575Z,41.10
2023-03-10T21:48:34.443Z,41.10
2023-03-10T21:51:01.161Z,41.00
2023-03-10T21:53:29.617Z,41.00
2023-03-10T21:55:57.563Z,41.00
2023-03-10T21:58:24.972Z,41.00
2023-03-10T22:00:53.304Z,41.00
2023-03-10T22:03:21.067Z,41.10
2023-03-10T22:05:49.075Z,41.00
2023-03-10T22:08:15.928Z,41.10
2023-03-10T22:10:42.984Z,41.10
2023-03-10T22:13:09.797Z,41.10
2023-03-10T22:15:36.626Z,41.10
2023-03-10T22:18:03.716Z,41.10
2023-03-10T22:20:30.606Z,41.00
2023-03-10T22:22:57.409Z,41.00
2023-03-10T22:25:24.568Z,41.10
2023-03-10T22:27:54.310Z,41.10
2023-03-10T22:30:22.528Z,41.10
2023-03-10T22:32:49.266Z,41.10
2023-03-10T22:35:17.179Z,41.10
2023-03-10T22:37:44.347Z,41.20
2023-03-10T22:40:22.217Z,41.10
2023-03-10T22:42:49.242Z,41.10
2023-03-10T22:45:22.546Z,41.10
2023-03-10T22:47:52.145Z,41.00
2023-03-10T22:50:26.641Z,41.00
2023-03-10T22:52:53.639Z,40.90
2023-03-10T22:55:24.470Z,40.90
2023-03-10T22:57:52.264Z,40.90
2023-03-10T23:00:21.632Z,40.80
2023-03-10T23:02:50.047Z,40.80
2023-03-10T23:05:17.329Z,40.70
2023-03-10T23:07:44.680Z,40.70
2023-03-10T23:10:21.438Z,40.60
2023-03-10T23:12:49.263Z,40.60
2023-03-10T23:15:25.115Z,40.60
2023-03-10T23:17:52.414Z,40.60
2023-03-10T23:20:19.655Z,40.50
2023-03-10T23:22:47.397Z,40.50
2023-03-10T23:25:30.126Z,40.40
2023-03-10T23:27:57.537Z,40.40
2023-03-10T23:30:25.109Z,40.40
2023-03-10T23:32:53.006Z,40.30
2023-03-10T23:35:22.934Z,40.30
2023-03-10T23:37:50.200Z,40.30
2023-03-10T23:40:19.508Z,40.20
2023-03-10T23:42:46.714Z,40.20
2023-03-10T23:45:19.075Z,40.20
2023-03-10T23:47:46.718Z,40.20
2023-03-10T23:50:18.430Z,40.10
2023-03-10T23:52:45.338Z,40.10
2023-03-10T23:55:15.469Z,40.00
2023-03-10T23:57:42.200Z,40.00
